sensor_id;sensor_type;location;lat;lon;timestamp;P1;durP1;ratioP1;P2;durP2;ratioP2
8596;SDS011;4336;49.310;8.646;2022-11-04T00:01:56;4.50;;;4.20;;
8596;SDS011;4336;49.310;8.646;2022-11-04T00:04:23;4.53;;;4.23;;
8596;SDS011;4336;49.310;8.646;2022-11-04T00:06:50;5.27;;;3.87;;
8596;SDS011;4336;49.310;8.646;2022-11-04T00:09:18;4.80;;;4.50;;
8596;SDS011;4336;49.310;8.646;2022-11-04T00:11:44;4.30;;;4.00;;
8596;SDS011;4336;49.310;8.646;2022-11-04T00:14:30;4.50;;;4.20;;
8596;SDS011;4336;49.310;8.646;2022-11-04T00:16:56;4.10;;;3.80;;
8596;SDS011;4336;49.310;8.646;2022-11-04T00:19:41;4.20;;;3.90;;
8596;SDS011;4336;49.310;8.646;2022-11-04T00:22:27;5.87;;;4.50;;
8596;SDS011;4336;49.310;8.646;2022-11-04T00:25:12;6.40;;;4.83;;
8596;SDS011;4336;49.310;8.646;2022-11-04T00:28:08;4.40;;;4.10;;
8596;SDS011;4336;49.310;8.646;2022-11-04T00:30:55;4.33;;;4.03;;
8596;SDS011;4336;49.310;8.646;2022-11-04T00:33:21;4.50;;;4.20;;
8596;SDS011;4336;49.310;8.646;2022-11-04T00:35:51;4.20;;;4.00;;
8596;SDS011;4336;49.310;8.646;2022-11-04T00:38:17;4.73;;;4.43;;
8596;SDS011;4336;49.310;8.646;2022-11-04T00:40:43;5.47;;;5.07;;
8596;SDS011;4336;49.310;8.646;2022-11-04T00:43:10;4.27;;;3.97;;
8596;SDS011;4336;49.310;8.646;2022-11-04T00:45:36;6.03;;;5.50;;
8596;SDS011;4336;49.310;8.646;2022-11-04T00:48:02;4.53;;;4.23;;
8596;SDS011;4336;49.310;8.646;2022-11-04T00:50:28;4.23;;;4.00;;
8596;SDS011;4336;49.310;8.646;2022-11-04T00:52:58;4.43;;;3.80;;
8596;SDS011;4336;49.310;8.646;2022-11-04T00:55:24;4.30;;;4.00;;
8596;SDS011;4336;49.310;8.646;2022-11-04T00:57:51;4.43;;;4.03;;
8596;SDS011;4336;49.310;8.646;2022-11-04T01:00:17;3.93;;;3.73;;
8596;SDS011;4336;49.310;8.646;2022-11-04T01:02:44;3.93;;;3.63;;
8596;SDS011;4336;49.310;8.646;2022-11-04T01:05:10;4.60;;;4.20;;
8596;SDS011;4336;49.310;8.646;2022-11-04T01:07:36;4.20;;;3.90;;
8596;SDS011;4336;49.310;8.646;2022-11-04T01:10:03;4.30;;;4.00;;
8596;SDS011;4336;49.310;8.646;2022-11-04T01:12:29;4.23;;;3.93;;
8596;SDS011;4336;49.310;8.646;2022-11-04T01:14:55;4.20;;;3.90;;
8596;SDS011;4336;49.310;8.646;2022-11-04T01:17:21;4.10;;;3.80;;
8596;SDS011;4336;49.310;8.646;2022-11-04T01:19:48;4.37;;;4.07;;
8596;SDS011;4336;49.310;8.646;2022-11-04T01:22:14;4.90;;;4.40;;
8596;SDS011;4336;49.310;8.646;2022-11-04T01:24:40;4.60;;;4.10;;
8596;SDS011;4336;49.310;8.646;2022-11-04T01:27:06;4.27;;;3.97;;
8596;SDS011;4336;49.310;8.646;2022-11-04T01:29:32;4.13;;;3.90;;
8596;SDS011;4336;49.310;8.646;2022-11-04T01:31:58;4.67;;;4.33;;
8596;SDS011;4336;49.310;8.646;2022-11-04T01:34:24;4.40;;;4.10;;
8596;SDS011;4336;49.310;8.646;2022-11-04T01:36:50;4.13;;;3.83;;
8596;SDS011;4336;49.310;8.646;2022-11-04T01:39:16;6.40;;;5.80;;
8596;SDS011;4336;49.310;8.646;2022-11-04T01:41:43;4.90;;;4.50;;
8596;SDS011;4336;49.310;8.646;2022-11-04T01:46:54;4.40;;;4.10;;
8596;SDS011;4336;49.310;8.646;2022-11-04T01:49:28;4.27;;;3.97;;
8596;SDS011;4336;49.310;8.646;2022-11-04T01:51:59;4.80;;;4.03;;
8596;SDS011;4336;49.310;8.646;2022-11-04T01:54:27;4.43;;;4.13;;
8596;SDS011;4336;49.310;8.646;2022-11-04T01:56:54;4.60;;;4.30;;
8596;SDS011;4336;49.310;8.646;2022-11-04T01:59:22;4.17;;;3.87;;
8596;SDS011;4336;49.310;8.646;2022-11-04T02:01:49;4.37;;;4.03;;
8596;SDS011;4336;49.310;8.646;2022-11-04T02:04:15;4.27;;;3.93;;
8596;SDS011;4336;49.310;8.646;2022-11-04T02:07:01;4.50;;;4.20;;
8596;SDS011;4336;49.310;8.646;2022-11-04T02:09:29;4.30;;;4.00;;
8596;SDS011;4336;49.310;8.646;2022-11-04T02:11:56;6.73;;;4.77;;
8596;SDS011;4336;49.310;8.646;2022-11-04T02:14:41;4.17;;;3.90;;
8596;SDS011;4336;49.310;8.646;2022-11-04T02:19:54;10.67;;;5.50;;
8596;SDS011;4336;49.310;8.646;2022-11-04T02:27:36;5.50;;;4.53;;
8596;SDS011;4336;49.310;8.646;2022-11-04T02:30:11;4.37;;;4.07;;
8596;SDS011;4336;49.310;8.646;2022-11-04T02:40:50;4.57;;;4.17;;
8596;SDS011;4336;49.310;8.646;2022-11-04T02:45:46;4.23;;;3.83;;
8596;SDS011;4336;49.310;8.646;2022-11-04T02:50:50;4.70;;;4.30;;
8596;SDS011;4336;49.310;8.646;2022-11-04T02:53:19;6.97;;;4.83;;
8596;SDS011;4336;49.310;8.646;2022-11-04T02:55:48;7.40;;;3.90;;
8596;SDS011;4336;49.310;8.646;2022-11-04T02:58:17;6.20;;;4.90;;
8596;SDS011;4336;49.310;8.646;2022-11-04T03:00:43;4.40;;;4.03;;
8596;SDS011;4336;49.310;8.646;2022-11-04T03:03:12;4.67;;;4.27;;
8596;SDS011;4336;49.310;8.646;2022-11-04T03:05:39;7.07;;;4.77;;
8596;SDS011;4336;49.310;8.646;2022-11-04T03:08:12;4.30;;;4.00;;
8596;SDS011;4336;49.310;8.646;2022-11-04T03:10:40;4.20;;;3.90;;
8596;SDS011;4336;49.310;8.646;2022-11-04T03:15:53;4.60;;;4.30;;
8596;SDS011;4336;49.310;8.646;2022-11-04T03:20:47;5.87;;;4.10;;
8596;SDS011;4336;49.310;8.646;2022-11-04T03:23:13;8.70;;;4.23;;
8596;SDS011;4336;49.310;8.646;2022-11-04T03:25:41;4.27;;;3.87;;
8596;SDS011;4336;49.310;8.646;2022-11-04T03:30:38;4.33;;;3.93;;
8596;SDS011;4336;49.310;8.646;2022-11-04T03:35:39;4.33;;;4.00;;
8596;SDS011;4336;49.310;8.646;2022-11-04T03:38:06;4.20;;;3.90;;
8596;SDS011;4336;49.310;8.646;2022-11-04T03:40:32;5.07;;;4.50;;
8596;SDS011;4336;49.310;8.646;2022-11-04T03:43:07;4.43;;;4.13;;
8596;SDS011;4336;49.310;8.646;2022-11-04T03:45:34;5.67;;;4.33;;
8596;SDS011;4336;49.310;8.646;2022-11-04T03:48:00;5.03;;;4.10;;
8596;SDS011;4336;49.310;8.646;2022-11-04T03:50:28;4.43;;;4.17;;
8596;SDS011;4336;49.310;8.646;2022-11-04T03:52:55;5.77;;;4.77;;
8596;SDS011;4336;49.310;8.646;2022-11-04T03:55:44;4.97;;;4.43;;
8596;SDS011;4336;49.310;8.646;2022-11-04T04:00:44;5.20;;;4.53;;
8596;SDS011;4336;49.310;8.646;2022-11-04T04:03:16;4.40;;;3.97;;
8596;SDS011;4336;49.310;8.646;2022-11-04T04:10:51;4.47;;;4.00;;
8596;SDS011;4336;49.310;8.646;2022-11-04T04:13:23;7.33;;;6.50;;
8596;SDS011;4336;49.310;8.646;2022-11-04T04:16:02;5.40;;;4.90;;
8596;SDS011;4336;49.310;8.646;2022-11-04T04:18:32;5.30;;;4.90;;
8596;SDS011;4336;49.310;8.646;2022-11-04T04:21:00;5.53;;;5.03;;
8596;SDS011;4336;49.310;8.646;2022-11-04T04:23:28;7.17;;;4.70;;
8596;SDS011;4336;49.310;8.646;2022-11-04T04:26:14;4.53;;;4.13;;
8596;SDS011;4336;49.310;8.646;2022-11-04T04:29:00;5.57;;;4.37;;
8596;SDS011;4336;49.310;8.646;2022-11-04T04:31:28;4.27;;;3.87;;
8596;SDS011;4336;49.310;8.646;2022-11-04T04:34:14;15.67;;;4.30;;
8596;SDS011;4336;49.310;8.646;2022-11-04T04:36:44;4.77;;;4.37;;
8596;SDS011;4336;49.310;8.646;2022-11-04T04:39:11;8.63;;;6.10;;
8596;SDS011;4336;49.310;8.646;2022-11-04T04:41:56;4.60;;;4.20;;
8596;SDS011;4336;49.310;8.646;2022-11-04T04:44:42;5.27;;;4.90;;
8596;SDS011;4336;49.310;8.646;2022-11-04T04:47:29;7.83;;;5.63;;
8596;SDS011;4336;49.310;8.646;2022-11-04T04:49:57;5.83;;;4.87;;
8596;SDS011;4336;49.310;8.646;2022-11-04T04:52:28;5.13;;;4.63;;
8596;SDS011;4336;49.310;8.646;2022-11-04T04:54:54;5.53;;;4.87;;
8596;SDS011;4336;49.310;8.646;2022-11-04T04:57:21;5.57;;;4.27;;
8596;SDS011;4336;49.310;8.646;2022-11-04T04:59:47;4.73;;;4.27;;
8596;SDS011;4336;49.310;8.646;2022-11-04T05:02:13;5.90;;;5.00;;
8596;SDS011;4336;49.310;8.646;2022-11-04T05:04:39;4.63;;;4.30;;
8596;SDS011;4336;49.310;8.646;2022-11-04T05:07:05;4.93;;;4.33;;
8596;SDS011;4336;49.310;8.646;2022-11-04T05:09:34;5.30;;;4.00;;
8596;SDS011;4336;49.310;8.646;2022-11-04T05:12:00;4.70;;;4.30;;
8596;SDS011;4336;49.310;8.646;2022-11-04T05:14:26;4.90;;;4.50;;
8596;SDS011;4336;49.310;8.646;2022-11-04T05:16:53;9.27;;;4.50;;
8596;SDS011;4336;49.310;8.646;2022-11-04T05:19:19;4.60;;;4.20;;
8596;SDS011;4336;49.310;8.646;2022-11-04T05:21:45;4.73;;;4.37;;
8596;SDS011;4336;49.310;8.646;2022-11-04T05:24:11;11.67;;;4.67;;
8596;SDS011;4336;49.310;8.646;2022-11-04T05:26:37;9.93;;;5.20;;
8596;SDS011;4336;49.310;8.646;2022-11-04T05:29:04;5.90;;;4.93;;
8596;SDS011;4336;49.310;8.646;2022-11-04T05:31:30;8.10;;;4.70;;
8596;SDS011;4336;49.310;8.646;2022-11-04T05:33:56;8.50;;;6.57;;
8596;SDS011;4336;49.310;8.646;2022-11-04T05:36:23;13.40;;;9.10;;
8596;SDS011;4336;49.310;8.646;2022-11-04T05:38:50;9.57;;;6.63;;
8596;SDS011;4336;49.310;8.646;2022-11-04T05:41:17;5.20;;;4.70;;
8596;SDS011;4336;49.310;8.646;2022-11-04T05:43:53;4.87;;;4.37;;
8596;SDS011;4336;49.310;8.646;2022-11-04T05:46:19;5.60;;;4.73;;
8596;SDS011;4336;49.310;8.646;2022-11-04T05:48:45;5.93;;;4.27;;
8596;SDS011;4336;49.310;8.646;2022-11-04T05:51:15;6.13;;;5.47;;
8596;SDS011;4336;49.310;8.646;2022-11-04T05:53:42;4.67;;;4.27;;
8596;SDS011;4336;49.310;8.646;2022-11-04T05:56:08;4.87;;;4.37;;
8596;SDS011;4336;49.310;8.646;2022-11-04T05:58:34;7.47;;;4.80;;
8596;SDS011;4336;49.310;8.646;2022-11-04T06:03:36;7.83;;;5.83;;
8596;SDS011;4336;49.310;8.646;2022-11-04T06:06:02;7.17;;;5.20;;
8596;SDS011;4336;49.310;8.646;2022-11-04T06:08:28;6.67;;;4.93;;
8596;SDS011;4336;49.310;8.646;2022-11-04T06:10:55;5.73;;;4.60;;
8596;SDS011;4336;49.310;8.646;2022-11-04T06:13:22;4.90;;;4.50;;
8596;SDS011;4336;49.310;8.646;2022-11-04T06:15:48;6.23;;;4.50;;
8596;SDS011;4336;49.310;8.646;2022-11-04T06:18:14;5.37;;;4.87;;
8596;SDS011;4336;49.310;8.646;2022-11-04T06:20:40;4.43;;;3.90;;
8596;SDS011;4336;49.310;8.646;2022-11-04T06:23:06;6.30;;;4.77;;
8596;SDS011;4336;49.310;8.646;2022-11-04T06:25:32;8.27;;;4.50;;
8596;SDS011;4336;49.310;8.646;2022-11-04T06:27:59;6.07;;;4.80;;
8596;SDS011;4336;49.310;8.646;2022-11-04T06:30:25;9.30;;;5.53;;
8596;SDS011;4336;49.310;8.646;2022-11-04T06:32:51;5.10;;;4.70;;
8596;SDS011;4336;49.310;8.646;2022-11-04T06:35:17;4.90;;;4.40;;
8596;SDS011;4336;49.310;8.646;2022-11-04T06:37:43;4.87;;;4.43;;
8596;SDS011;4336;49.310;8.646;2022-11-04T06:40:10;4.87;;;4.47;;
8596;SDS011;4336;49.310;8.646;2022-11-04T06:42:36;5.33;;;4.23;;
8596;SDS011;4336;49.310;8.646;2022-11-04T06:45:03;7.10;;;4.60;;
8596;SDS011;4336;49.310;8.646;2022-11-04T06:47:29;5.00;;;4.70;;
8596;SDS011;4336;49.310;8.646;2022-11-04T06:49:55;5.23;;;4.73;;
8596;SDS011;4336;49.310;8.646;2022-11-04T06:52:21;10.00;;;5.23;;
8596;SDS011;4336;49.310;8.646;2022-11-04T06:54:47;6.00;;;4.60;;
8596;SDS011;4336;49.310;8.646;2022-11-04T06:57:14;5.47;;;4.33;;
8596;SDS011;4336;49.310;8.646;2022-11-04T06:59:40;5.20;;;4.57;;
8596;SDS011;4336;49.310;8.646;2022-11-04T07:02:06;7.87;;;5.37;;
8596;SDS011;4336;49.310;8.646;2022-11-04T07:04:32;5.43;;;4.27;;
8596;SDS011;4336;49.310;8.646;2022-11-04T07:06:58;5.07;;;4.47;;
8596;SDS011;4336;49.310;8.646;2022-11-04T07:09:24;6.23;;;4.67;;
8596;SDS011;4336;49.310;8.646;2022-11-04T07:11:50;5.90;;;5.30;;
8596;SDS011;4336;49.310;8.646;2022-11-04T07:14:16;5.00;;;4.70;;
8596;SDS011;4336;49.310;8.646;2022-11-04T07:16:43;7.33;;;5.20;;
8596;SDS011;4336;49.310;8.646;2022-11-04T07:19:09;6.50;;;4.67;;
8596;SDS011;4336;49.310;8.646;2022-11-04T07:21:35;5.50;;;5.00;;
8596;SDS011;4336;49.310;8.646;2022-11-04T07:24:01;6.27;;;5.10;;
8596;SDS011;4336;49.310;8.646;2022-11-04T07:26:27;4.87;;;4.50;;
8596;SDS011;4336;49.310;8.646;2022-11-04T07:28:53;4.77;;;4.43;;
8596;SDS011;4336;49.310;8.646;2022-11-04T07:31:20;6.17;;;4.67;;
8596;SDS011;4336;49.310;8.646;2022-11-04T07:33:46;9.47;;;4.80;;
8596;SDS011;4336;49.310;8.646;2022-11-04T07:36:14;8.33;;;5.00;;
8596;SDS011;4336;49.310;8.646;2022-11-04T07:38:41;7.00;;;4.93;;
8596;SDS011;4336;49.310;8.646;2022-11-04T07:41:07;5.07;;;4.57;;
8596;SDS011;4336;49.310;8.646;2022-11-04T07:43:33;4.90;;;4.50;;
8596;SDS011;4336;49.310;8.646;2022-11-04T07:46:02;8.17;;;5.57;;
8596;SDS011;4336;49.310;8.646;2022-11-04T07:48:28;5.87;;;5.33;;
8596;SDS011;4336;49.310;8.646;2022-11-04T07:50:56;6.83;;;4.90;;
8596;SDS011;4336;49.310;8.646;2022-11-04T07:53:22;8.27;;;4.60;;
8596;SDS011;4336;49.310;8.646;2022-11-04T07:55:48;5.77;;;5.03;;
8596;SDS011;4336;49.310;8.646;2022-11-04T07:58:16;7.47;;;5.10;;
8596;SDS011;4336;49.310;8.646;2022-11-04T08:00:44;8.40;;;5.63;;
8596;SDS011;4336;49.310;8.646;2022-11-04T08:03:11;5.40;;;4.90;;
8596;SDS011;4336;49.310;8.646;2022-11-04T08:05:37;8.17;;;5.13;;
8596;SDS011;4336;49.310;8.646;2022-11-04T08:08:03;9.57;;;5.53;;
8596;SDS011;4336;49.310;8.646;2022-11-04T08:10:29;13.27;;;6.93;;
8596;SDS011;4336;49.310;8.646;2022-11-04T08:12:55;8.10;;;7.27;;
8596;SDS011;4336;49.310;8.646;2022-11-04T08:15:22;8.40;;;6.40;;
8596;SDS011;4336;49.310;8.646;2022-11-04T08:17:48;7.03;;;6.00;;
8596;SDS011;4336;49.310;8.646;2022-11-04T08:20:14;6.37;;;5.77;;
8596;SDS011;4336;49.310;8.646;2022-11-04T08:22:40;8.27;;;7.07;;
8596;SDS011;4336;49.310;8.646;2022-11-04T08:25:06;13.40;;;9.87;;
8596;SDS011;4336;49.310;8.646;2022-11-04T08:27:35;8.63;;;7.00;;
8596;SDS011;4336;49.310;8.646;2022-11-04T08:30:01;5.63;;;5.13;;
8596;SDS011;4336;49.310;8.646;2022-11-04T08:32:27;6.37;;;5.33;;
8596;SDS011;4336;49.310;8.646;2022-11-04T08:34:53;18.83;;;12.60;;
8596;SDS011;4336;49.310;8.646;2022-11-04T08:37:19;14.87;;;10.67;;
8596;SDS011;4336;49.310;8.646;2022-11-04T08:39:45;14.87;;;12.27;;
8596;SDS011;4336;49.310;8.646;2022-11-04T08:42:10;20.80;;;14.00;;
8596;SDS011;4336;49.310;8.646;2022-11-04T08:44:36;7.07;;;6.37;;
8596;SDS011;4336;49.310;8.646;2022-11-04T08:47:04;5.10;;;4.70;;
8596;SDS011;4336;49.310;8.646;2022-11-04T08:49:30;6.43;;;4.33;;
8596;SDS011;4336;49.310;8.646;2022-11-04T08:51:55;4.20;;;3.60;;
8596;SDS011;4336;49.310;8.646;2022-11-04T08:54:24;6.30;;;5.30;;
8596;SDS011;4336;49.310;8.646;2022-11-04T08:56:50;6.60;;;5.30;;
8596;SDS011;4336;49.310;8.646;2022-11-04T08:59:16;9.43;;;5.47;;
8596;SDS011;4336;49.310;8.646;2022-11-04T09:01:42;8.90;;;4.37;;
8596;SDS011;4336;49.310;8.646;2022-11-04T09:04:09;5.17;;;4.37;;
8596;SDS011;4336;49.310;8.646;2022-11-04T09:06:37;4.90;;;4.50;;
8596;SDS011;4336;49.310;8.646;2022-11-04T09:09:05;4.97;;;4.57;;
8596;SDS011;4336;49.310;8.646;2022-11-04T09:11:33;4.87;;;4.30;;
8596;SDS011;4336;49.310;8.646;2022-11-04T09:14:04;4.77;;;4.37;;
8596;SDS011;4336;49.310;8.646;2022-11-04T09:16:31;4.93;;;4.53;;
8596;SDS011;4336;49.310;8.646;2022-11-04T09:18:58;5.43;;;4.57;;
8596;SDS011;4336;49.310;8.646;2022-11-04T09:21:25;4.53;;;4.13;;
8596;SDS011;4336;49.310;8.646;2022-11-04T09:23:51;5.53;;;4.10;;
8596;SDS011;4336;49.310;8.646;2022-11-04T09:26:17;4.60;;;4.20;;
8596;SDS011;4336;49.310;8.646;2022-11-04T09:28:43;7.07;;;4.27;;
8596;SDS011;4336;49.310;8.646;2022-11-04T09:31:13;4.63;;;4.20;;
8596;SDS011;4336;49.310;8.646;2022-11-04T09:33:41;4.20;;;3.80;;
8596;SDS011;4336;49.310;8.646;2022-11-04T09:36:07;4.43;;;4.03;;
8596;SDS011;4336;49.310;8.646;2022-11-04T09:38:35;5.83;;;4.20;;
8596;SDS011;4336;49.310;8.646;2022-11-04T09:41:18;4.70;;;3.90;;
8596;SDS011;4336;49.310;8.646;2022-11-04T09:44:24;5.47;;;4.93;;
8596;SDS011;4336;49.310;8.646;2022-11-04T09:46:52;5.60;;;4.87;;
8596;SDS011;4336;49.310;8.646;2022-11-04T09:49:22;10.13;;;4.13;;
8596;SDS011;4336;49.310;8.646;2022-11-04T09:51:49;6.77;;;4.20;;
8596;SDS011;4336;49.310;8.646;2022-11-04T09:54:23;4.50;;;4.10;;
8596;SDS011;4336;49.310;8.646;2022-11-04T09:56:50;4.80;;;4.40;;
8596;SDS011;4336;49.310;8.646;2022-11-04T09:59:23;7.97;;;4.50;;
8596;SDS011;4336;49.310;8.646;2022-11-04T10:10:33;10.60;;;4.00;;
8596;SDS011;4336;49.310;8.646;2022-11-04T10:15:58;7.23;;;5.00;;
8596;SDS011;4336;49.310;8.646;2022-11-04T10:27:04;4.67;;;4.23;;
8596;SDS011;4336;49.310;8.646;2022-11-04T10:29:42;7.00;;;5.03;;
8596;SDS011;4336;49.310;8.646;2022-11-04T10:34:57;4.77;;;3.87;;
8596;SDS011;4336;49.310;8.646;2022-11-04T10:37:25;4.30;;;4.00;;
8596;SDS011;4336;49.310;8.646;2022-11-04T10:39:56;5.03;;;4.50;;
8596;SDS011;4336;49.310;8.646;2022-11-04T10:42:28;4.43;;;4.13;;
8596;SDS011;4336;49.310;8.646;2022-11-04T10:44:54;4.80;;;4.40;;
8596;SDS011;4336;49.310;8.646;2022-11-04T10:47:36;6.53;;;3.93;;
8596;SDS011;4336;49.310;8.646;2022-11-04T10:52:54;5.17;;;4.20;;
8596;SDS011;4336;49.310;8.646;2022-11-04T10:55:29;4.10;;;3.70;;
8596;SDS011;4336;49.310;8.646;2022-11-04T10:58:16;5.37;;;4.87;;
8596;SDS011;4336;49.310;8.646;2022-11-04T11:00:55;6.07;;;4.50;;
8596;SDS011;4336;49.310;8.646;2022-11-04T11:05:51;4.80;;;4.40;;
8596;SDS011;4336;49.310;8.646;2022-11-04T11:08:30;4.93;;;4.60;;
8596;SDS011;4336;49.310;8.646;2022-11-04T11:10:58;5.13;;;4.37;;
8596;SDS011;4336;49.310;8.646;2022-11-04T11:13:25;3.97;;;3.67;;
8596;SDS011;4336;49.310;8.646;2022-11-04T11:16:03;4.67;;;4.27;;
8596;SDS011;4336;49.310;8.646;2022-11-04T11:19:33;4.13;;;3.83;;
8596;SDS011;4336;49.310;8.646;2022-11-04T11:21:49;5.40;;;3.97;;
8596;SDS011;4336;49.310;8.646;2022-11-04T11:24:20;4.13;;;3.83;;
8596;SDS011;4336;49.310;8.646;2022-11-04T11:26:51;4.63;;;4.23;;
8596;SDS011;4336;49.310;8.646;2022-11-04T11:29:23;3.87;;;3.60;;
8596;SDS011;4336;49.310;8.646;2022-11-04T11:31:53;9.67;;;4.80;;
8596;SDS011;4336;49.310;8.646;2022-11-04T11:36:46;5.67;;;3.80;;
8596;SDS011;4336;49.310;8.646;2022-11-04T11:39:18;4.07;;;3.77;;
8596;SDS011;4336;49.310;8.646;2022-11-04T11:44:40;3.87;;;3.67;;
8596;SDS011;4336;49.310;8.646;2022-11-04T11:47:19;4.23;;;3.87;;
8596;SDS011;4336;49.310;8.646;2022-11-04T11:49:46;4.47;;;4.17;;
8596;SDS011;4336;49.310;8.646;2022-11-04T11:55:40;4.17;;;3.80;;
8596;SDS011;4336;49.310;8.646;2022-11-04T12:00:46;3.93;;;3.63;;
8596;SDS011;4336;49.310;8.646;2022-11-04T12:03:44;9.37;;;4.40;;
8596;SDS011;4336;49.310;8.646;2022-11-04T12:06:16;5.33;;;3.90;;
8596;SDS011;4336;49.310;8.646;2022-11-04T12:09:11;4.00;;;3.70;;
8596;SDS011;4336;49.310;8.646;2022-11-04T12:12:07;4.53;;;3.90;;
8596;SDS011;4336;49.310;8.646;2022-11-04T12:15:01;3.77;;;3.50;;
8596;SDS011;4336;49.310;8.646;2022-11-04T12:20:27;4.07;;;3.57;;
8596;SDS011;4336;49.310;8.646;2022-11-04T12:28:58;4.10;;;3.80;;
8596;SDS011;4336;49.310;8.646;2022-11-04T12:31:39;4.33;;;3.80;;
8596;SDS011;4336;49.310;8.646;2022-11-04T12:34:25;5.10;;;3.93;;
8596;SDS011;4336;49.310;8.646;2022-11-04T12:39:47;4.40;;;3.73;;
8596;SDS011;4336;49.310;8.646;2022-11-04T12:48:01;10.27;;;4.00;;
8596;SDS011;4336;49.310;8.646;2022-11-04T12:53:32;4.13;;;3.73;;
8596;SDS011;4336;49.310;8.646;2022-11-04T13:01:41;4.00;;;3.43;;
8596;SDS011;4336;49.310;8.646;2022-11-04T13:04:22;4.37;;;3.93;;
8596;SDS011;4336;49.310;8.646;2022-11-04T13:06:57;5.13;;;4.20;;
8596;SDS011;4336;49.310;8.646;2022-11-04T13:09:37;3.77;;;3.47;;
8596;SDS011;4336;49.310;8.646;2022-11-04T13:12:29;5.00;;;3.83;;
8596;SDS011;4336;49.310;8.646;2022-11-04T13:15:14;6.50;;;5.87;;
8596;SDS011;4336;49.310;8.646;2022-11-04T13:17:43;5.27;;;4.87;;
8596;SDS011;4336;49.310;8.646;2022-11-04T13:22:38;5.17;;;4.27;;
8596;SDS011;4336;49.310;8.646;2022-11-04T13:25:06;5.03;;;4.63;;
8596;SDS011;4336;49.310;8.646;2022-11-04T13:27:57;4.20;;;3.70;;
8596;SDS011;4336;49.310;8.646;2022-11-04T13:35:42;5.43;;;5.00;;
8596;SDS011;4336;49.310;8.646;2022-11-04T13:44:00;4.40;;;4.00;;
8596;SDS011;4336;49.310;8.646;2022-11-04T13:46:29;5.10;;;4.30;;
8596;SDS011;4336;49.310;8.646;2022-11-04T13:51:37;7.87;;;3.43;;
8596;SDS011;4336;49.310;8.646;2022-11-04T13:54:23;4.80;;;4.07;;
8596;SDS011;4336;49.310;8.646;2022-11-04T13:57:03;4.10;;;3.70;;
8596;SDS011;4336;49.310;8.646;2022-11-04T13:59:32;5.23;;;4.00;;
8596;SDS011;4336;49.310;8.646;2022-11-04T14:04:37;6.57;;;4.57;;
8596;SDS011;4336;49.310;8.646;2022-11-04T14:07:06;6.27;;;4.50;;
8596;SDS011;4336;49.310;8.646;2022-11-04T14:14:38;4.20;;;3.80;;
8596;SDS011;4336;49.310;8.646;2022-11-04T14:22:52;5.03;;;4.53;;
8596;SDS011;4336;49.310;8.646;2022-11-04T14:25:21;4.90;;;4.50;;
8596;SDS011;4336;49.310;8.646;2022-11-04T14:27:56;5.90;;;4.30;;
8596;SDS011;4336;49.310;8.646;2022-11-04T14:33:31;4.60;;;4.17;;
8596;SDS011;4336;49.310;8.646;2022-11-04T14:36:15;5.07;;;4.57;;
8596;SDS011;4336;49.310;8.646;2022-11-04T14:38:54;4.50;;;4.20;;
8596;SDS011;4336;49.310;8.646;2022-11-04T14:43:52;4.20;;;3.80;;
8596;SDS011;4336;49.310;8.646;2022-11-04T14:46:24;6.57;;;3.80;;
8596;SDS011;4336;49.310;8.646;2022-11-04T14:48:53;6.43;;;3.63;;
8596;SDS011;4336;49.310;8.646;2022-11-04T14:51:25;5.03;;;4.53;;
8596;SDS011;4336;49.310;8.646;2022-11-04T14:53:53;13.90;;;5.60;;
8596;SDS011;4336;49.310;8.646;2022-11-04T14:56:30;8.67;;;4.83;;
8596;SDS011;4336;49.310;8.646;2022-11-04T14:59:01;5.00;;;4.10;;
8596;SDS011;4336;49.310;8.646;2022-11-04T15:01:30;7.17;;;4.37;;
8596;SDS011;4336;49.310;8.646;2022-11-04T15:04:03;5.20;;;4.67;;
8596;SDS011;4336;49.310;8.646;2022-11-04T15:06:38;5.20;;;4.43;;
8596;SDS011;4336;49.310;8.646;2022-11-04T15:09:16;4.40;;;4.00;;
8596;SDS011;4336;49.310;8.646;2022-11-04T15:11:47;4.87;;;4.37;;
8596;SDS011;4336;49.310;8.646;2022-11-04T15:14:31;5.90;;;4.77;;
8596;SDS011;4336;49.310;8.646;2022-11-04T15:17:01;7.20;;;4.20;;
8596;SDS011;4336;49.310;8.646;2022-11-04T15:19:36;7.07;;;4.13;;
8596;SDS011;4336;49.310;8.646;2022-11-04T15:22:03;4.90;;;4.40;;
8596;SDS011;4336;49.310;8.646;2022-11-04T15:24:29;4.23;;;3.87;;
8596;SDS011;4336;49.310;8.646;2022-11-04T15:26:57;4.67;;;4.37;;
8596;SDS011;4336;49.310;8.646;2022-11-04T15:29:29;5.63;;;4.13;;
8596;SDS011;4336;49.310;8.646;2022-11-04T15:31:59;6.30;;;4.40;;
8596;SDS011;4336;49.310;8.646;2022-11-04T15:34:27;4.63;;;4.23;;
8596;SDS011;4336;49.310;8.646;2022-11-04T15:36:55;7.03;;;4.23;;
8596;SDS011;4336;49.310;8.646;2022-11-04T15:39:22;8.10;;;4.80;;
8596;SDS011;4336;49.310;8.646;2022-11-04T15:42:17;5.03;;;4.53;;
8596;SDS011;4336;49.310;8.646;2022-11-04T15:45:16;6.03;;;4.87;;
8596;SDS011;4336;49.310;8.646;2022-11-04T15:47:42;8.43;;;5.73;;
8596;SDS011;4336;49.310;8.646;2022-11-04T15:50:21;17.20;;;8.30;;
8596;SDS011;4336;49.310;8.646;2022-11-04T15:52:54;17.93;;;5.53;;
8596;SDS011;4336;49.310;8.646;2022-11-04T15:55:21;10.57;;;6.97;;
8596;SDS011;4336;49.310;8.646;2022-11-04T15:57:48;9.03;;;5.73;;
8596;SDS011;4336;49.310;8.646;2022-11-04T16:07:48;6.47;;;5.53;;
8596;SDS011;4336;49.310;8.646;2022-11-04T16:13:02;8.23;;;4.93;;
8596;SDS011;4336;49.310;8.646;2022-11-04T16:15:32;4.70;;;4.30;;
8596;SDS011;4336;49.310;8.646;2022-11-04T16:18:06;6.00;;;5.40;;
8596;SDS011;4336;49.310;8.646;2022-11-04T16:20:46;9.97;;;6.80;;
8596;SDS011;4336;49.310;8.646;2022-11-04T16:23:13;15.60;;;10.27;;
8596;SDS011;4336;49.310;8.646;2022-11-04T16:25:42;10.17;;;6.50;;
8596;SDS011;4336;49.310;8.646;2022-11-04T16:28:20;13.63;;;5.77;;
8596;SDS011;4336;49.310;8.646;2022-11-04T16:31:00;6.10;;;5.00;;
8596;SDS011;4336;49.310;8.646;2022-11-04T16:33:28;5.03;;;4.63;;
8596;SDS011;4336;49.310;8.646;2022-11-04T16:35:54;5.30;;;4.67;;
8596;SDS011;4336;49.310;8.646;2022-11-04T16:38:20;5.27;;;4.77;;
8596;SDS011;4336;49.310;8.646;2022-11-04T16:40:47;5.13;;;4.30;;
8596;SDS011;4336;49.310;8.646;2022-11-04T16:43:20;4.87;;;4.10;;
8596;SDS011;4336;49.310;8.646;2022-11-04T16:45:47;8.47;;;4.50;;
8596;SDS011;4336;49.310;8.646;2022-11-04T16:48:17;5.20;;;4.80;;
8596;SDS011;4336;49.310;8.646;2022-11-04T16:50:44;5.27;;;4.40;;
8596;SDS011;4336;49.310;8.646;2022-11-04T16:53:10;4.60;;;4.30;;
8596;SDS011;4336;49.310;8.646;2022-11-04T16:55:40;4.63;;;4.20;;
8596;SDS011;4336;49.310;8.646;2022-11-04T16:58:09;4.97;;;4.57;;
8596;SDS011;4336;49.310;8.646;2022-11-04T17:00:37;5.03;;;4.50;;
8596;SDS011;4336;49.310;8.646;2022-11-04T17:03:15;4.47;;;4.17;;
8596;SDS011;4336;49.310;8.646;2022-11-04T17:05:52;5.83;;;5.00;;
8596;SDS011;4336;49.310;8.646;2022-11-04T17:08:20;5.83;;;5.23;;
8596;SDS011;4336;49.310;8.646;2022-11-04T17:10:47;9.13;;;5.60;;
8596;SDS011;4336;49.310;8.646;2022-11-04T17:13:13;4.90;;;4.43;;
8596;SDS011;4336;49.310;8.646;2022-11-04T17:15:39;5.33;;;4.87;;
8596;SDS011;4336;49.310;8.646;2022-11-04T17:18:06;7.10;;;5.33;;
8596;SDS011;4336;49.310;8.646;2022-11-04T17:20:31;7.20;;;5.10;;
8596;SDS011;4336;49.310;8.646;2022-11-04T17:22:58;7.80;;;4.83;;
8596;SDS011;4336;49.310;8.646;2022-11-04T17:25:25;13.10;;;7.97;;
8596;SDS011;4336;49.310;8.646;2022-11-04T17:27:52;8.50;;;7.23;;
8596;SDS011;4336;49.310;8.646;2022-11-04T17:30:18;7.10;;;5.83;;
8596;SDS011;4336;49.310;8.646;2022-11-04T17:32:46;11.53;;;5.90;;
8596;SDS011;4336;49.310;8.646;2022-11-04T17:35:12;5.10;;;4.70;;
8596;SDS011;4336;49.310;8.646;2022-11-04T17:37:39;6.30;;;4.63;;
8596;SDS011;4336;49.310;8.646;2022-11-04T17:40:06;5.93;;;5.30;;
8596;SDS011;4336;49.310;8.646;2022-11-04T17:42:32;6.30;;;5.17;;
8596;SDS011;4336;49.310;8.646;2022-11-04T17:45:17;7.07;;;5.83;;
8596;SDS011;4336;49.310;8.646;2022-11-04T17:47:43;6.67;;;5.77;;
8596;SDS011;4336;49.310;8.646;2022-11-04T17:50:10;8.83;;;6.27;;
8596;SDS011;4336;49.310;8.646;2022-11-04T17:52:36;7.77;;;6.43;;
8596;SDS011;4336;49.310;8.646;2022-11-04T17:55:03;7.63;;;5.50;;
8596;SDS011;4336;49.310;8.646;2022-11-04T17:57:29;4.70;;;4.37;;
8596;SDS011;4336;49.310;8.646;2022-11-04T17:59:55;4.47;;;4.07;;
8596;SDS011;4336;49.310;8.646;2022-11-04T18:02:22;5.27;;;4.77;;
8596;SDS011;4336;49.310;8.646;2022-11-04T18:04:48;5.40;;;5.00;;
8596;SDS011;4336;49.310;8.646;2022-11-04T18:07:14;9.87;;;5.23;;
8596;SDS011;4336;49.310;8.646;2022-11-04T18:09:40;5.57;;;5.07;;